Aérodrome :
LOGIN :

S'inscrire | Disclaimer

   EN    FR    IT 

 










Légende :    VFR   VFR Marginal   IFR   IFR Intensif   IFR Très Intensif
Visi : 
Plafond : 
>= 8 km
>= 3000ft
5 à 8 km
1000 à 3000 ft
1500m à 5 km
500 à 1000 ft
800 à 1500m
200 à 500 ft
< 800m
< 200 ft
Symboles :   Orages  Brouillard  Fortes neiges  Fortes précipitations  Vent > 20 kt
SIGMETs :   Divers  Orages  Givrage  Turbulence  Onde Orograph.  Cendres Volcan.







- Altitude de l'aérodrome : 184 ft
- Code IATA : BRU


EBBR - Bruxelles

DERNIER METAR :
  • 160750Z 20005KT 4000 BR BKN004 02/02 Q1009 TEMPO 2000 BR

METARs EXPIRÉS :
  • 160720Z 20006KT 4000 BR BKN004 02/02 Q1009 TEMPO 2000 BR
  • 160650Z 21007KT 4500 BR BKN004 02/02 Q1009 TEMPO 2000 BR
  • 160620Z 21005KT 4500 BR BKN004 02/01 Q1009 TEMPO 2000 BR
  • 160550Z 20007KT 5000 BR BKN003 01/01 Q1009 TEMPO 2000 BR
  • 160520Z 20006KT 7000 BKN004 01/00 Q1009 NOSIG

TAF COR TAF EBBR
Valide du 16 à 06h jusqu'au 17 à 12h UTC


160515Z 1606/1712 22008KT 8000 BKN007
PROB30
TEMPO 1606/1609 2000 BR BKN003
PROB30
TEMPO 1608/1610 4000 SHRA
BECMG 1609/1611 SCT008 BKN012
TEMPO 1611/1616 SCT010 BKN030
BECMG 1616/1618 BKN007
PROB30
TEMPO 1619/1624 BKN004
PROB30
TEMPO 1703/1707 4500 -RA SHRA
BECMG 1707/1709 SCT015 SCT030
Pas de NOTAMs connus pour ce terrain.



MET'MAP, la Météo Aéronautique d'un coup d'oeil ! - Copyright ORBIFLY Décembre 2007 - Disclaimer

ORBIFLY MET'MAP TEAM :

Programmation & Développement : Alexandra Zaïnal
Conception & Développement : Baudouin d'Aumeries
Co-Programmation & Développement : Marc-Olivier Méhu
Soutien technique & logistique : Manuel Goepfert

Contact : metmap@orbifly.com




SOURCES & CREDITS :

   NOAA